Time;durP1;ratioP1;P1;durP2;ratioP2;P2;SDS_P1;SDS_P2;PMS_P1;PMS_P2;Temp;Humidity;BMP_temperature;BMP_pressure;BME280_temperature;BME280_humidity;BME280_pressure;Samples;Min_cycle;Max_cycle;Signal;HPM_P1;HPM_P2
2021/05/09 00:00:57;;;;;;;6.93;3.73;;;14.00;99.90;;;;;;5062239;28;20485;-77
2021/05/09 00:03:23;;;;;;;5.43;3.37;;;14.00;99.90;;;;;;5056435;28;20433;-78
2021/05/09 00:05:48;;;;;;;4.07;2.50;;;14.10;99.90;;;;;;5063172;28;20451;-78
2021/05/09 00:08:14;;;;;;;5.40;3.70;;;14.00;99.90;;;;;;5055949;28;20198;-77
2021/05/09 00:10:40;;;;;;;3.20;2.90;;;14.10;99.90;;;;;;5063816;28;20201;-78
2021/05/09 00:13:06;;;;;;;4.83;3.20;;;14.00;99.90;;;;;;5053627;28;20875;-78
2021/05/09 00:15:31;;;;;;;4.87;3.60;;;14.00;99.90;;;;;;5036460;28;20441;-78
2021/05/09 00:17:57;;;;;;;4.70;3.87;;;14.00;99.90;;;;;;5050105;28;20178;-78
2021/05/09 00:20:22;;;;;;;3.63;3.33;;;14.00;99.90;;;;;;5053982;28;20178;-78
2021/05/09 00:22:48;;;;;;;3.70;3.33;;;14.10;99.90;;;;;;5076722;28;20180;-78
2021/05/09 00:25:14;;;;;;;3.40;3.10;;;14.00;99.90;;;;;;5064302;28;20205;-78
2021/05/09 00:27:41;;;;;;;3.33;3.03;;;14.00;99.90;;;;;;5070725;28;20189;-78
2021/05/09 00:30:08;;;;;;;4.30;3.90;;;14.00;99.90;;;;;;5069805;28;20917;-78
2021/05/09 00:32:33;;;;;;;3.80;3.00;;;14.00;99.90;;;;;;5067890;28;20501;-78
2021/05/09 00:34:59;;;;;;;3.07;2.80;;;14.00;99.90;;;;;;5060468;28;20445;-78
2021/05/09 00:37:24;;;;;;;2.90;2.70;;;14.00;99.90;;;;;;5073158;28;20544;-77
2021/05/09 00:39:50;;;;;;;5.30;3.67;;;13.90;99.90;;;;;;5059658;28;20651;-78
2021/05/09 00:42:16;;;;;;;4.70;3.90;;;13.90;99.90;;;;;;5064119;28;20171;-77
2021/05/09 00:44:42;;;;;;;3.60;2.97;;;13.90;99.90;;;;;;5076173;28;20264;-78
2021/05/09 00:47:12;;;;;;;3.67;3.37;;;13.80;99.90;;;;;;5075518;28;20440;-78
2021/05/09 00:49:39;;;;;;;4.07;3.23;;;13.80;99.90;;;;;;5073658;28;20178;-78
2021/05/09 00:52:10;;;;;;;4.80;3.30;;;13.80;99.90;;;;;;5077264;28;20431;-78
2021/05/09 00:55:00;;;;;;;5.53;3.20;;;13.70;99.90;;;;;;5076689;28;20457;-78
2021/05/09 00:57:26;;;;;;;3.80;3.20;;;13.50;99.90;;;;;;5058378;28;20439;-78
2021/05/09 00:59:55;;;;;;;3.60;3.30;;;13.50;99.90;;;;;;5077284;28;20436;-78
2021/05/09 01:02:21;;;;;;;4.37;3.97;;;13.50;99.90;;;;;;5062612;28;20268;-77
2021/05/09 01:04:46;;;;;;;6.53;3.83;;;13.40;99.90;;;;;;5070996;28;21028;-78
2021/05/09 01:07:14;;;;;;;3.60;3.30;;;13.40;99.90;;;;;;5070191;28;20199;-78
2021/05/09 01:09:40;;;;;;;3.80;3.50;;;13.50;99.90;;;;;;5072720;28;20174;-78
2021/05/09 01:12:09;;;;;;;3.80;3.30;;;13.40;99.90;;;;;;5075403;28;20420;-78
2021/05/09 01:14:35;;;;;;;4.63;4.23;;;13.40;99.90;;;;;;5075276;28;20794;-78
2021/05/09 01:17:00;;;;;;;3.60;3.30;;;13.30;99.90;;;;;;5069295;28;20429;-78
2021/05/09 01:19:26;;;;;;;4.10;3.80;;;13.20;99.90;;;;;;5058964;28;20271;-78
2021/05/09 01:21:52;;;;;;;3.40;3.10;;;13.10;99.90;;;;;;5064217;28;20175;-77
2021/05/09 01:24:17;;;;;;;4.37;3.67;;;12.90;99.90;;;;;;5072472;28;20190;-78
2021/05/09 01:26:43;;;;;;;5.80;3.97;;;12.90;99.90;;;;;;5074758;28;20178;-77
2021/05/09 01:29:08;;;;;;;3.90;3.60;;;12.80;99.90;;;;;;5062447;28;20210;-77
2021/05/09 01:31:34;;;;;;;4.07;3.60;;;12.80;99.90;;;;;;5053173;28;20170;-77
2021/05/09 01:34:00;;;;;;;3.50;3.17;;;12.80;99.90;;;;;;5047290;28;20195;-78
2021/05/09 01:36:25;;;;;;;3.90;3.40;;;12.80;99.90;;;;;;5062825;28;20474;-78
2021/05/09 01:38:53;;;;;;;3.93;3.40;;;12.70;99.90;;;;;;5066506;28;20549;-78
2021/05/09 01:41:18;;;;;;;4.47;3.13;;;12.60;99.90;;;;;;5068049;28;20174;-78
2021/05/09 01:43:44;;;;;;;3.70;3.40;;;12.60;99.90;;;;;;5063519;28;20444;-78
2021/05/09 01:46:09;;;;;;;4.40;3.73;;;12.40;99.90;;;;;;5070738;28;20195;-78
2021/05/09 01:48:35;;;;;;;6.63;3.90;;;12.60;99.90;;;;;;5046947;28;20259;-77
2021/05/09 01:51:01;;;;;;;3.43;3.10;;;12.60;99.90;;;;;;5073278;28;20192;-77
2021/05/09 01:53:26;;;;;;;4.60;3.33;;;12.60;99.90;;;;;;5063503;28;20224;-78
2021/05/09 01:55:52;;;;;;;5.30;3.13;;;12.40;99.90;;;;;;5054878;28;20293;-78
2021/05/09 01:58:17;;;;;;;6.00;3.17;;;12.40;99.90;;;;;;5060330;28;20224;-78
2021/05/09 02:00:43;;;;;;;3.87;3.10;;;12.50;99.90;;;;;;5036979;28;20174;-78
2021/05/09 02:03:08;;;;;;;3.20;2.70;;;12.40;99.90;;;;;;5056261;28;20170;-77
2021/05/09 02:05:34;;;;;;;4.73;4.20;;;12.30;99.90;;;;;;5062800;28;20197;-78
2021/05/09 02:07:59;;;;;;;4.20;3.80;;;12.20;99.90;;;;;;5057309;28;20249;-77
2021/05/09 02:10:25;;;;;;;5.70;4.27;;;12.10;99.90;;;;;;5039380;28;20644;-78
2021/05/09 02:12:51;;;;;;;5.40;4.97;;;12.00;99.90;;;;;;5074525;28;20642;-77
2021/05/09 02:15:16;;;;;;;3.40;3.10;;;12.10;99.90;;;;;;5063191;28;20199;-77
2021/05/09 02:17:43;;;;;;;4.20;3.80;;;12.10;99.90;;;;;;5056352;28;20253;-77
2021/05/09 02:20:09;;;;;;;4.47;4.07;;;12.10;99.90;;;;;;5055441;28;20378;-77
2021/05/09 02:22:35;;;;;;;4.40;3.50;;;12.00;99.90;;;;;;5056303;28;20429;-78
2021/05/09 02:25:00;;;;;;;5.30;4.00;;;11.90;99.90;;;;;;5038704;28;20836;-77
2021/05/09 02:27:26;;;;;;;4.50;3.77;;;11.90;99.90;;;;;;5068400;28;20243;-78
2021/05/09 02:29:51;;;;;;;4.57;4.07;;;11.90;99.90;;;;;;5041285;28;20167;-77
2021/05/09 02:32:17;;;;;;;4.40;4.10;;;11.90;99.90;;;;;;5051201;28;20170;-78
2021/05/09 02:34:42;;;;;;;4.30;3.90;;;11.90;99.90;;;;;;5058830;28;20289;-77
2021/05/09 02:37:08;;;;;;;6.27;4.23;;;11.80;99.90;;;;;;5053294;28;20210;-77
2021/05/09 02:39:34;;;;;;;4.40;4.00;;;11.80;99.90;;;;;;5052628;28;20588;-77
2021/05/09 02:41:59;;;;;;;4.47;3.97;;;11.80;99.90;;;;;;5053586;28;20249;-78
2021/05/09 02:44:25;;;;;;;4.60;3.70;;;11.70;99.90;;;;;;5053650;28;20214;-78
2021/05/09 02:46:51;;;;;;;8.20;5.03;;;11.70;99.90;;;;;;5053312;28;20591;-78
2021/05/09 02:49:16;;;;;;;5.87;4.60;;;11.60;99.90;;;;;;5035587;28;20457;-78
2021/05/09 02:51:42;;;;;;;5.87;5.37;;;11.60;99.90;;;;;;5035552;28;20253;-78
2021/05/09 02:54:07;;;;;;;5.00;4.50;;;11.60;99.90;;;;;;5053434;28;20179;-78
2021/05/09 02:56:33;;;;;;;5.83;4.67;;;11.70;99.90;;;;;;5052658;28;20177;-77
2021/05/09 02:58:58;;;;;;;4.60;4.20;;;11.70;99.90;;;;;;5059301;28;20197;-78
2021/05/09 03:01:24;;;;;;;4.87;4.37;;;11.70;99.90;;;;;;5068140;28;20820;-77
2021/05/09 03:03:49;;;;;;;5.73;4.60;;;11.70;99.90;;;;;;5052624;28;20652;-77
2021/05/09 03:06:15;;;;;;;5.23;4.70;;;11.50;99.90;;;;;;5059403;28;20652;-77
2021/05/09 03:08:41;;;;;;;7.43;6.13;;;11.50;99.90;;;;;;5037392;28;20193;-77
2021/05/09 03:11:06;;;;;;;7.90;6.63;;;11.30;99.90;;;;;;5052436;28;20234;-77
2021/05/09 03:13:32;;;;;;;6.90;6.20;;;11.30;99.90;;;;;;5052404;28;20171;-77
2021/05/09 03:15:59;;;;;;;7.67;6.20;;;11.30;99.90;;;;;;5052834;28;20807;-78
2021/05/09 03:18:25;;;;;;;5.93;5.43;;;11.20;99.90;;;;;;5052559;28;20215;-78
2021/05/09 03:20:51;;;;;;;7.67;6.33;;;11.30;99.90;;;;;;5054461;28;20804;-77
2021/05/09 03:23:16;;;;;;;6.20;5.60;;;11.30;99.90;;;;;;5059130;28;20527;-77
2021/05/09 03:25:42;;;;;;;5.60;5.10;;;11.30;99.90;;;;;;5056083;28;20598;-77
2021/05/09 03:28:07;;;;;;;6.50;5.30;;;11.20;99.90;;;;;;5058853;28;20544;-77
2021/05/09 03:30:33;;;;;;;5.70;5.20;;;11.10;99.90;;;;;;5061295;28;20178;-78
2021/05/09 03:32:58;;;;;;;5.60;5.10;;;11.10;99.90;;;;;;5073570;28;20256;-77
2021/05/09 03:35:24;;;;;;;5.57;4.40;;;11.20;99.90;;;;;;5054827;28;20186;-77
2021/05/09 03:37:49;;;;;;;6.20;5.70;;;11.10;99.90;;;;;;5071809;28;20639;-77
2021/05/09 03:40:15;;;;;;;5.50;4.97;;;11.00;99.90;;;;;;5067355;28;20618;-77
2021/05/09 03:42:41;;;;;;;6.60;5.13;;;11.00;99.90;;;;;;5071715;28;20181;-77
2021/05/09 03:45:07;;;;;;;5.63;5.13;;;11.00;99.90;;;;;;5064313;28;20483;-77
2021/05/09 03:47:35;;;;;;;6.37;5.40;;;11.00;99.90;;;;;;5070609;28;20499;-77
2021/05/09 03:50:00;;;;;;;5.93;5.33;;;10.80;99.90;;;;;;5068898;28;20436;-77
2021/05/09 03:52:26;;;;;;;5.43;4.93;;;10.80;99.90;;;;;;5064432;28;20416;-77
2021/05/09 03:54:52;;;;;;;6.53;5.83;;;10.80;99.90;;;;;;5051405;28;20246;-77
2021/05/09 03:57:17;;;;;;;7.63;5.23;;;10.80;99.90;;;;;;5064893;28;20191;-77
2021/05/09 03:59:43;;;;;;;5.70;4.90;;;10.70;99.90;;;;;;5062495;28;20178;-77
2021/05/09 04:02:09;;;;;;;6.80;5.83;;;10.70;99.90;;;;;;5051272;28;20268;-77
2021/05/09 04:04:35;;;;;;;5.23;4.73;;;10.60;99.90;;;;;;5071763;28;20252;-77
2021/05/09 04:07:00;;;;;;;6.80;6.00;;;10.60;99.90;;;;;;5051855;28;20413;-77
2021/05/09 04:09:26;;;;;;;7.73;5.10;;;10.70;99.90;;;;;;5038689;28;20170;-77
2021/05/09 04:11:52;;;;;;;7.37;5.60;;;10.70;99.90;;;;;;5093319;28;20184;-77
2021/05/09 04:14:17;;;;;;;5.07;4.63;;;10.70;99.90;;;;;;5067851;28;20293;-77
2021/05/09 04:16:43;;;;;;;6.20;5.60;;;10.70;99.90;;;;;;5055736;28;20183;-77
2021/05/09 04:19:08;;;;;;;10.00;5.50;;;10.70;99.90;;;;;;5055550;28;20191;-77
2021/05/09 04:21:34;;;;;;;5.57;5.07;;;10.70;99.90;;;;;;5051973;28;20186;-77
2021/05/09 04:23:59;;;;;;;5.80;5.23;;;10.70;99.90;;;;;;5052120;28;20203;-77
2021/05/09 04:26:25;;;;;;;4.43;4.03;;;10.70;99.90;;;;;;5054997;28;20179;-77
2021/05/09 04:28:51;;;;;;;5.70;4.87;;;10.70;99.90;;;;;;5071017;28;20201;-77
2021/05/09 04:31:16;;;;;;;5.00;4.30;;;10.80;99.90;;;;;;5044916;28;20175;-77
2021/05/09 04:33:42;;;;;;;4.90;4.47;;;10.70;99.90;;;;;;5052828;28;20509;-77
2021/05/09 04:36:07;;;;;;;5.93;5.00;;;10.70;99.90;;;;;;5055461;28;20309;-77
2021/05/09 04:38:33;;;;;;;5.37;4.87;;;10.80;99.90;;;;;;5071728;28;20189;-77
2021/05/09 04:40:59;;;;;;;6.50;4.50;;;10.80;99.90;;;;;;5071110;28;20228;-77
2021/05/09 04:43:25;;;;;;;5.97;5.20;;;10.70;99.90;;;;;;5075539;28;20205;-77
2021/05/09 04:45:53;;;;;;;5.53;5.03;;;10.80;99.90;;;;;;5070413;28;21020;-77
2021/05/09 04:48:19;;;;;;;6.13;5.63;;;10.80;99.90;;;;;;5058108;28;20209;-77
2021/05/09 04:50:45;;;;;;;5.87;5.37;;;10.90;99.90;;;;;;5051606;28;20467;-77
2021/05/09 04:53:33;;;;;;;5.57;5.07;;;10.90;99.90;;;;;;5054438;28;20445;-77
2021/05/09 04:56:00;;;;;;;6.47;5.87;;;11.00;99.90;;;;;;5040383;28;20420;-77
2021/05/09 04:58:27;;;;;;;5.53;5.03;;;11.00;99.90;;;;;;5075122;28;20779;-77
2021/05/09 05:01:00;;;;;;;5.87;5.30;;;11.00;99.90;;;;;;5054680;28;20424;-77
2021/05/09 05:03:27;;;;;;;6.57;5.13;;;11.10;99.90;;;;;;5055948;28;20975;-77
2021/05/09 05:05:53;;;;;;;5.77;5.27;;;11.10;99.90;;;;;;5073335;28;20436;-78
2021/05/09 05:08:19;;;;;;;6.87;5.60;;;11.20;99.90;;;;;;5077144;28;20505;-77
2021/05/09 05:10:45;;;;;;;5.50;4.90;;;11.40;99.90;;;;;;5076677;28;20411;-78
2021/05/09 05:13:22;;;;;;;7.50;5.63;;;11.50;99.90;;;;;;5075267;28;20463;-78
2021/05/09 05:15:49;;;;;;;5.90;5.30;;;11.60;99.90;;;;;;5074031;28;20449;-78
2021/05/09 05:18:16;;;;;;;8.27;5.57;;;11.70;99.90;;;;;;5057803;28;20422;-77
2021/05/09 05:20:42;;;;;;;7.03;4.87;;;11.80;99.90;;;;;;5071518;28;20425;-78
2021/05/09 05:23:08;;;;;;;4.27;3.87;;;11.80;99.90;;;;;;5070486;28;20417;-78
2021/05/09 05:25:33;;;;;;;4.10;3.70;;;12.00;99.90;;;;;;5038396;28;20450;-78
2021/05/09 05:28:03;;;;;;;5.27;4.80;;;12.20;99.90;;;;;;5037992;28;20850;-78
2021/05/09 05:30:29;;;;;;;4.20;3.57;;;12.40;99.90;;;;;;5056765;28;20178;-78
2021/05/09 05:32:57;;;;;;;4.77;4.27;;;12.50;99.90;;;;;;5075271;28;20408;-77
2021/05/09 05:35:22;;;;;;;4.53;4.13;;;12.90;99.90;;;;;;5063450;28;20194;-78
2021/05/09 05:37:48;;;;;;;4.47;3.87;;;13.20;99.90;;;;;;5056451;28;20782;-78
2021/05/09 05:40:14;;;;;;;4.73;3.93;;;13.50;99.90;;;;;;5057602;28;20181;-78
2021/05/09 05:42:39;;;;;;;4.57;3.80;;;13.70;99.90;;;;;;5075346;28;20178;-78
2021/05/09 05:45:06;;;;;;;7.90;4.63;;;14.00;99.90;;;;;;5057559;28;20578;-78
2021/05/09 05:47:31;;;;;;;6.67;4.20;;;14.10;99.90;;;;;;5055316;28;20568;-78
2021/05/09 05:49:58;;;;;;;5.23;4.70;;;14.20;99.90;;;;;;5055463;28;20405;-78
2021/05/09 05:52:23;;;;;;;4.63;4.20;;;14.10;99.90;;;;;;5058758;28;20647;-78
2021/05/09 05:54:49;;;;;;;5.50;4.13;;;14.40;99.90;;;;;;5084113;28;20431;-78
2021/05/09 05:57:15;;;;;;;5.67;5.10;;;14.80;99.90;;;;;;5054964;28;20281;-79
2021/05/09 05:59:40;;;;;;;5.33;4.50;;;15.10;99.90;;;;;;5037492;28;20429;-78
2021/05/09 06:02:06;;;;;;;7.30;4.70;;;15.10;99.90;;;;;;5056872;28;20246;-78
2021/05/09 06:04:32;;;;;;;4.80;3.83;;;15.30;99.90;;;;;;5039094;28;20282;-79
2021/05/09 06:06:58;;;;;;;4.57;4.17;;;15.70;99.90;;;;;;5039688;28;20628;-78
2021/05/09 06:09:23;;;;;;;6.87;4.03;;;15.70;99.90;;;;;;5051019;28;20467;-78
2021/05/09 06:11:49;;;;;;;4.50;4.07;;;15.70;99.90;;;;;;5056714;28;20247;-79
2021/05/09 06:14:14;;;;;;;4.27;3.70;;;15.70;99.90;;;;;;5056830;28;20199;-78
2021/05/09 06:16:40;;;;;;;5.23;3.30;;;15.70;99.90;;;;;;5074818;28;20693;-79
2021/05/09 06:19:06;;;;;;;3.57;3.27;;;16.00;99.90;;;;;;5073743;28;20735;-79
2021/05/09 06:21:31;;;;;;;4.73;4.43;;;16.50;99.90;;;;;;5065350;28;20560;-80
2021/05/09 06:23:57;;;;;;;3.70;3.40;;;16.80;99.90;;;;;;5079350;28;20194;-79
2021/05/09 06:26:22;;;;;;;6.77;5.87;;;16.60;99.90;;;;;;5060274;28;20189;-78
2021/05/09 06:28:48;;;;;;;3.80;3.37;;;17.20;99.90;;;;;;5078769;28;20206;-80
2021/05/09 06:31:14;;;;;;;3.70;3.40;;;17.40;99.90;;;;;;5068564;28;20174;-79
2021/05/09 06:33:39;;;;;;;4.67;3.50;;;17.60;99.90;;;;;;5076909;28;20189;-80
2021/05/09 06:36:05;;;;;;;3.13;2.93;;;17.50;99.90;;;;;;5061638;28;20277;-79
2021/05/09 06:38:31;;;;;;;3.47;3.20;;;17.70;99.90;;;;;;5078733;28;20178;-80
2021/05/09 06:40:57;;;;;;;4.80;2.43;;;17.40;99.90;;;;;;5055157;28;20655;-81
2021/05/09 06:43:22;;;;;;;3.80;3.37;;;17.50;99.90;;;;;;5055343;28;20174;-81
2021/05/09 06:45:49;;;;;;;2.57;2.37;;;17.70;99.90;;;;;;5072348;28;20561;-80
2021/05/09 06:48:15;;;;;;;3.70;3.23;;;18.10;99.90;;;;;;5051289;28;20445;-81
2021/05/09 06:50:40;;;;;;;3.10;2.70;;;18.50;99.90;;;;;;5067558;28;20443;-81
2021/05/09 06:53:07;;;;;;;2.60;2.40;;;18.80;99.90;;;;;;5052022;28;20242;-80
2021/05/09 06:55:34;;;;;;;2.60;2.40;;;18.90;99.90;;;;;;5049015;28;20191;-81
2021/05/09 06:58:01;;;;;;;2.80;2.30;;;19.00;99.90;;;;;;5050432;28;20513;-80
2021/05/09 07:00:27;;;;;;;2.80;2.50;;;19.00;99.90;;;;;;5069740;28;20420;-80
2021/05/09 07:02:52;;;;;;;3.20;2.83;;;19.40;99.90;;;;;;5083499;28;20448;-81
2021/05/09 07:05:18;;;;;;;4.47;2.53;;;19.20;99.90;;;;;;5048127;28;20213;-81
2021/05/09 07:07:51;;;;;;;5.30;2.60;;;19.50;99.90;;;;;;5047162;28;20199;-80
2021/05/09 07:10:18;;;;;;;5.50;2.87;;;19.30;99.90;;;;;;5063119;28;20182;-80
2021/05/09 07:12:44;;;;;;;3.90;2.80;;;19.40;99.90;;;;;;5073201;28;20428;-80
2021/05/09 07:15:11;;;;;;;3.27;2.97;;;19.30;99.90;;;;;;5077846;28;20460;-81
2021/05/09 07:17:38;;;;;;;2.63;2.43;;;19.70;99.90;;;;;;5069061;28;20209;-81
2021/05/09 07:20:04;;;;;;;6.60;2.50;;;20.00;99.90;;;;;;5084524;28;20428;-80
2021/05/09 07:22:35;;;;;;;4.40;2.60;;;20.20;99.90;;;;;;5065694;28;20426;-81
2021/05/09 07:25:01;;;;;;;2.60;2.17;;;20.60;99.90;;;;;;5059524;28;20976;-80
2021/05/09 07:27:26;;;;;;;3.07;1.70;;;20.60;99.90;;;;;;5074913;28;20460;-81
2021/05/09 07:29:52;;;;;;;2.87;2.60;;;20.70;99.90;;;;;;5070995;28;20745;-80
2021/05/09 07:32:17;;;;;;;2.27;2.07;;;20.60;99.90;;;;;;5048145;28;20186;-80
2021/05/09 07:34:43;;;;;;;4.60;2.20;;;20.60;99.90;;;;;;5050251;28;20198;-80
2021/05/09 07:37:08;;;;;;;2.83;2.10;;;20.50;99.90;;;;;;5052101;28;20308;-80
2021/05/09 07:39:34;;;;;;;3.63;2.27;;;20.40;99.90;;;;;;5075017;28;20278;-80
2021/05/09 07:41:59;;;;;;;2.30;2.10;;;20.40;99.90;;;;;;5048522;28;20181;-81
2021/05/09 07:44:25;;;;;;;7.07;2.00;;;20.90;99.90;;;;;;5070044;28;20221;-81
2021/05/09 07:46:51;;;;;;;5.23;2.30;;;20.90;99.90;;;;;;5047160;28;20778;-81
2021/05/09 07:49:18;;;;;;;5.10;2.33;;;21.00;99.90;;;;;;5046347;28;20313;-81
2021/05/09 07:51:43;;;;;;;3.70;2.37;;;20.80;99.90;;;;;;5081055;28;20447;-80
2021/05/09 07:54:09;;;;;;;1.80;1.63;;;20.60;99.90;;;;;;5078097;28;20190;-80
2021/05/09 07:56:37;;;;;;;3.03;1.90;;;20.50;99.90;;;;;;5063321;28;20173;-81
2021/05/09 07:59:03;;;;;;;4.20;2.13;;;20.30;99.90;;;;;;5081918;28;20272;-82
2021/05/09 08:01:29;;;;;;;3.77;3.07;;;20.10;99.90;;;;;;5077404;28;20531;-82
2021/05/09 08:03:54;;;;;;;4.70;2.40;;;20.00;99.90;;;;;;5064195;28;20980;-80
2021/05/09 08:06:20;;;;;;;8.77;2.20;;;20.00;99.90;;;;;;5066555;28;20210;-80
2021/05/09 08:08:45;;;;;;;3.27;2.20;;;20.20;99.90;;;;;;5083436;28;20663;-80
2021/05/09 08:11:11;;;;;;;2.60;2.00;;;20.60;99.90;;;;;;5069312;28;20175;-80
2021/05/09 08:13:36;;;;;;;4.47;2.40;;;20.90;99.90;;;;;;5053699;28;20170;-80
2021/05/09 08:16:02;;;;;;;3.67;2.70;;;20.90;99.90;;;;;;5067722;28;20170;-80
2021/05/09 08:18:28;;;;;;;2.50;2.30;;;21.10;99.90;;;;;;5082525;28;20198;-81
2021/05/09 08:20:56;;;;;;;7.07;2.33;;;21.60;99.90;;;;;;5078272;28;20444;-81
2021/05/09 08:23:21;;;;;;;2.73;2.20;;;21.90;99.90;;;;;;5068147;28;20178;-80
2021/05/09 08:25:47;;;;;;;2.83;2.27;;;22.20;99.90;;;;;;5075897;28;20609;-81
2021/05/09 08:28:13;;;;;;;3.73;2.33;;;22.80;99.90;;;;;;5067994;28;20194;-81
2021/05/09 08:30:38;;;;;;;4.00;2.20;;;23.00;99.90;;;;;;5074117;28;20518;-81
2021/05/09 08:33:04;;;;;;;2.50;2.30;;;22.90;99.90;;;;;;5068941;28;20229;-82
2021/05/09 08:35:30;;;;;;;3.53;2.10;;;23.10;99.90;;;;;;5071036;28;20198;-81
2021/05/09 08:37:55;;;;;;;5.07;2.87;;;23.00;99.90;;;;;;5065222;28;20266;-80
2021/05/09 08:40:21;;;;;;;3.40;2.30;;;22.80;99.90;;;;;;5081899;28;20546;-82
2021/05/09 08:42:49;;;;;;;3.20;2.90;;;23.10;99.90;;;;;;5084218;28;20178;-81
2021/05/09 08:45:16;;;;;;;4.10;2.27;;;23.20;99.90;;;;;;5062991;28;20198;-80
2021/05/09 08:47:41;;;;;;;2.43;2.00;;;23.20;99.90;;;;;;5076712;28;20837;-80
2021/05/09 08:50:15;;;;;;;2.57;2.17;;;23.30;99.90;;;;;;5050480;28;20425;-81
2021/05/09 08:52:43;;;;;;;7.10;2.20;;;23.30;99.90;;;;;;5082698;28;20190;-81
2021/05/09 08:55:12;;;;;;;6.00;3.30;;;23.00;99.90;;;;;;5075644;28;20513;-82
2021/05/09 08:57:41;;;;;;;4.33;2.30;;;23.10;99.90;;;;;;5066721;28;20405;-80
2021/05/09 09:00:10;;;;;;;2.27;2.07;;;23.10;99.90;;;;;;5068926;28;20421;-81
2021/05/09 09:02:35;;;;;;;3.27;1.93;;;23.30;99.90;;;;;;5068134;28;20429;-81
2021/05/09 09:05:01;;;;;;;2.97;2.57;;;23.30;99.90;;;;;;5060292;28;20459;-81
2021/05/09 09:07:47;;;;;;;2.60;2.40;;;23.00;99.90;;;;;;5085794;28;20699;-81
2021/05/09 09:10:30;;;;;;;3.70;2.33;;;22.90;99.90;;;;;;5064051;28;20182;-81
2021/05/09 09:12:59;;;;;;;6.97;2.53;;;22.90;99.90;;;;;;5047434;28;20429;-81
2021/05/09 09:15:24;;;;;;;3.30;2.17;;;23.30;99.90;;;;;;5060513;28;20538;-81
2021/05/09 09:17:50;;;;;;;2.63;2.13;;;23.40;99.90;;;;;;5067111;28;20437;-82
2021/05/09 09:20:17;;;;;;;5.00;2.40;;;23.10;99.90;;;;;;5086188;28;20232;-82
2021/05/09 09:22:54;;;;;;;2.77;2.10;;;23.30;99.90;;;;;;5072257;28;20185;-82
2021/05/09 09:25:23;;;;;;;2.60;2.27;;;23.40;99.90;;;;;;5081254;28;20455;-81
2021/05/09 09:27:49;;;;;;;2.10;2.00;;;23.30;99.90;;;;;;5048139;28;20461;-82
2021/05/09 09:30:17;;;;;;;2.77;2.50;;;23.30;99.90;;;;;;5062161;28;20417;-81
2021/05/09 09:33:16;;;;;;;2.50;2.30;;;22.90;99.90;;;;;;5060016;28;20419;-82
2021/05/09 09:35:43;;;;;;;2.37;2.17;;;22.90;99.90;;;;;;5074837;28;20455;-82
2021/05/09 09:38:30;;;;;;;2.30;2.10;;;23.30;99.90;;;;;;5069959;28;20436;-82
2021/05/09 09:41:17;;;;;;;2.83;2.60;;;23.60;99.90;;;;;;5068514;28;20451;-81
2021/05/09 09:44:03;;;;;;;4.47;2.50;;;23.70;99.90;;;;;;5067475;28;20849;-81
2021/05/09 09:46:40;;;;;;;4.80;2.60;;;23.60;99.90;;;;;;5069269;28;20444;-83
2021/05/09 09:49:22;;;;;;;2.47;2.03;;;23.50;99.90;;;;;;5072981;28;20465;-82
2021/05/09 09:51:56;;;;;;;3.80;2.50;;;23.50;99.90;;;;;;5046475;28;20867;-83
2021/05/09 09:54:32;;;;;;;6.33;3.17;;;23.20;99.90;;;;;;5055089;28;20505;-82
2021/05/09 09:56:59;;;;;;;7.17;2.80;;;23.20;99.90;;;;;;5067790;28;20419;-82
2021/05/09 09:59:25;;;;;;;3.60;2.30;;;23.10;99.90;;;;;;5069932;28;20464;-80
2021/05/09 10:01:51;;;;;;;3.73;3.00;;;23.40;99.90;;;;;;5068989;28;20437;-81
2021/05/09 10:04:16;;;;;;;4.07;2.47;;;23.80;99.90;;;;;;5056992;28;20213;-82
2021/05/09 10:06:42;;;;;;;4.07;2.63;;;24.00;99.90;;;;;;5075077;28;20182;-81
2021/05/09 10:09:09;;;;;;;7.67;5.10;;;24.20;99.90;;;;;;5046619;28;20202;-81
2021/05/09 10:11:36;;;;;;;3.03;2.80;;;24.10;99.90;;;;;;5071677;28;20194;-82
2021/05/09 10:14:02;;;;;;;3.73;2.60;;;24.30;99.90;;;;;;5064135;28;20461;-81
2021/05/09 10:16:29;;;;;;;2.60;2.40;;;24.50;99.90;;;;;;5062198;28;20425;-81
2021/05/09 10:19:03;;;;;;;2.90;2.67;;;24.90;99.90;;;;;;5049175;28;20413;-84
2021/05/09 10:21:29;;;;;;;3.10;2.60;;;25.30;99.90;;;;;;5062968;28;20473;-82
2021/05/09 10:24:15;;;;;;;2.40;2.20;;;25.60;99.90;;;;;;5085237;28;20437;-81
2021/05/09 10:26:43;;;;;;;6.20;2.43;;;25.60;99.90;;;;;;5078650;28;20500;-81
2021/05/09 10:29:29;;;;;;;3.30;2.37;;;25.60;99.90;;;;;;5053142;28;20701;-81
2021/05/09 10:31:54;;;;;;;5.63;2.47;;;25.70;99.90;;;;;;5064528;28;20475;-80
2021/05/09 10:34:53;;;;;;;2.83;2.00;;;25.80;99.90;;;;;;5101819;28;20431;-81
2021/05/09 10:40:37;;;;;;;2.63;2.40;;;25.00;99.90;;;;;;5081615;28;20411;-80
2021/05/09 10:45:40;;;;;;;3.97;2.73;;;25.20;99.90;;;;;;5063362;28;20462;-81
2021/05/09 10:50:51;;;;;;;3.07;2.33;;;25.20;99.90;;;;;;5081939;28;20405;-80
2021/05/09 10:53:39;;;;;;;5.23;3.17;;;25.20;99.90;;;;;;5085722;28;20416;-81
2021/05/09 10:56:14;;;;;;;5.17;4.67;;;25.30;99.90;;;;;;5069628;28;20401;-82
2021/05/09 10:58:54;;;;;;;3.40;3.10;;;25.30;99.90;;;;;;5076188;28;20424;-82
2021/05/09 11:01:31;;;;;;;3.20;2.90;;;25.40;99.90;;;;;;5067237;28;20410;-81
2021/05/09 11:04:16;;;;;;;5.20;3.50;;;25.40;99.90;;;;;;5068595;28;20440;-81
2021/05/09 11:06:50;;;;;;;3.53;3.23;;;25.30;99.90;;;;;;5085876;28;20447;-81
2021/05/09 11:09:28;;;;;;;4.93;2.83;;;25.50;99.90;;;;;;5086136;28;20455;-82
2021/05/09 11:11:55;;;;;;;4.40;3.57;;;25.70;99.90;;;;;;5083379;28;20409;-81
2021/05/09 11:14:21;;;;;;;5.50;5.00;;;25.80;99.90;;;;;;5084421;28;20452;-81
2021/05/09 11:16:58;;;;;;;3.00;2.70;;;25.90;99.90;;;;;;5074908;28;20421;-80
2021/05/09 11:19:25;;;;;;;2.20;2.00;;;26.00;99.90;;;;;;5045297;28;20415;-81
2021/05/09 11:21:56;;;;;;;4.37;3.03;;;26.10;99.90;;;;;;5040832;28;20421;-80
2021/05/09 11:24:24;;;;;;;2.37;2.17;;;26.40;94.10;;;;;;5056291;28;20479;-80
2021/05/09 11:26:54;;;;;;;4.03;2.70;;;26.90;93.50;;;;;;5057222;28;20410;-80
2021/05/09 11:29:28;;;;;;;7.73;3.27;;;27.40;90.40;;;;;;5038883;28;20453;-81
2021/05/09 11:31:58;;;;;;;3.73;2.43;;;27.80;83.80;;;;;;5039926;28;20405;-80
2021/05/09 11:34:26;;;;;;;5.17;2.27;;;27.90;80.00;;;;;;5074322;28;20432;-79
2021/05/09 11:36:53;;;;;;;10.13;2.90;;;28.30;79.50;;;;;;5074097;28;20409;-79
2021/05/09 11:39:40;;;;;;;5.77;2.57;;;28.50;78.10;;;;;;5074903;28;20408;-79
2021/05/09 11:42:16;;;;;;;8.23;2.23;;;28.70;72.50;;;;;;5078097;28;20416;-81
2021/05/09 11:44:47;;;;;;;13.37;3.80;;;28.50;69.80;;;;;;5079505;28;20451;-80
2021/05/09 11:47:31;;;;;;;11.60;3.53;;;28.30;67.70;;;;;;5058038;28;20561;-81
2021/05/09 11:50:08;;;;;;;10.40;4.23;;;28.40;69.80;;;;;;5075696;28;20478;-81
2021/05/09 11:52:43;;;;;;;6.97;3.10;;;28.70;67.00;;;;;;5075505;28;20921;-81
2021/05/09 11:55:15;;;;;;;15.53;3.50;;;28.20;68.60;;;;;;5057006;28;20432;-79
2021/05/09 11:57:40;;;;;;;11.50;3.20;;;28.50;69.90;;;;;;5075901;28;20412;-81
2021/05/09 12:00:11;;;;;;;10.30;2.80;;;28.50;67.20;;;;;;5063827;28;20408;-82
2021/05/09 12:02:38;;;;;;;14.70;2.97;;;28.70;68.60;;;;;;5059613;28;20932;-80
2021/05/09 12:05:16;;;;;;;4.40;2.97;;;28.80;67.70;;;;;;5077061;28;20440;-80
2021/05/09 12:07:54;;;;;;;7.60;2.30;;;28.60;66.20;;;;;;5056791;28;20451;-81
2021/05/09 12:10:34;;;;;;;4.30;2.73;;;28.50;66.90;;;;;;5074849;28;20412;-82
2021/05/09 12:13:07;;;;;;;12.43;2.80;;;28.60;68.70;;;;;;5074007;28;20901;-81
2021/05/09 12:15:33;;;;;;;10.43;3.90;;;28.70;66.30;;;;;;5074166;28;20424;-80
2021/05/09 12:18:00;;;;;;;11.17;2.93;;;28.90;67.50;;;;;;5074712;28;20494;-80
2021/05/09 12:20:42;;;;;;;8.40;3.00;;;28.80;68.70;;;;;;5073423;28;20516;-82
2021/05/09 12:23:09;;;;;;;5.43;2.23;;;29.10;68.90;;;;;;5066088;28;20420;-82
2021/05/09 12:25:38;;;;;;;5.40;3.03;;;29.40;67.80;;;;;;5053331;28;20798;-80
2021/05/09 12:28:05;;;;;;;5.67;2.90;;;29.70;67.20;;;;;;5074200;28;20451;-81
2021/05/09 12:30:31;;;;;;;4.73;2.63;;;30.00;67.90;;;;;;5043274;28;20417;-80
2021/05/09 12:32:56;;;;;;;3.73;2.70;;;29.70;63.90;;;;;;5062432;28;20424;-80
2021/05/09 12:35:22;;;;;;;3.83;2.47;;;29.20;62.20;;;;;;5057725;28;20201;-81
2021/05/09 12:37:47;;;;;;;2.17;1.97;;;29.10;60.20;;;;;;5048754;28;20321;-80
2021/05/09 12:40:30;;;;;;;2.70;2.50;;;28.80;60.20;;;;;;5048671;28;20233;-81
2021/05/09 12:42:58;;;;;;;8.20;3.33;;;28.90;60.50;;;;;;5050197;28;20178;-81
2021/05/09 12:45:31;;;;;;;3.23;1.83;;;29.00;64.10;;;;;;5053706;28;20448;-80
2021/05/09 12:48:04;;;;;;;2.50;2.30;;;29.50;64.00;;;;;;5075937;28;20801;-80
2021/05/09 12:51:06;;;;;;;2.80;2.27;;;29.60;62.90;;;;;;5047600;28;20440;-81
2021/05/09 12:53:50;;;;;;;3.60;2.20;;;29.10;60.50;;;;;;4983743;28;20829;-83
2021/05/09 12:56:25;;;;;;;2.10;1.90;;;29.40;60.90;;;;;;5034164;28;20514;-82
2021/05/09 12:59:03;;;;;;;3.90;2.40;;;29.40;61.90;;;;;;5040851;28;20478;-82